createdAt,value
2023-05-15T00:00:06.878Z,13.3
2023-05-15T00:01:23.072Z,13.3
2023-05-15T00:02:38.284Z,13.3
2023-05-15T00:03:54.000Z,13.3
2023-05-15T00:05:10.670Z,13.3
2023-05-15T00:06:26.870Z,13.3
2023-05-15T00:07:25.065Z,13.2
2023-05-15T00:08:59.000Z,13.2
2023-05-15T00:10:15.000Z,13.2
2023-05-15T00:11:31.650Z,13.1
2023-05-15T00:12:47.839Z,13.1
2023-05-15T00:14:04.000Z,13.1
2023-05-15T00:15:02.234Z,13
2023-05-15T00:16:36.415Z,13
2023-05-15T00:17:52.623Z,13
2023-05-15T00:19:07.000Z,13
2023-05-15T00:20:06.030Z,13
2023-05-15T00:21:40.226Z,13
2023-05-15T00:22:56.000Z,13
2023-05-15T00:24:12.616Z,13.1
2023-05-15T00:25:28.797Z,13.1
2023-05-15T00:26:44.996Z,13.1
2023-05-15T00:28:01.187Z,13.1
2023-05-15T00:29:17.000Z,13.1
2023-05-15T00:30:33.577Z,13.1
2023-05-15T00:31:31.786Z,13.1
2023-05-15T00:33:32.000Z,13.1
2023-05-15T00:34:48.000Z,13.1
2023-05-15T00:35:38.000Z,13.1
2023-05-15T00:36:54.000Z,13.1
2023-05-15T00:38:10.758Z,13.1
2023-05-15T00:39:27.064Z,13.1
2023-05-15T00:40:25.273Z,13.1
2023-05-15T00:41:59.000Z,13.2
2023-05-15T00:43:15.659Z,13.2
2023-05-15T00:44:31.859Z,13.2
2023-05-15T00:45:48.038Z,13.1
2023-05-15T00:46:46.249Z,13.1
2023-05-15T00:48:20.000Z,13.1
2023-05-15T00:49:36.000Z,13.1
2023-05-15T00:50:52.000Z,13
2023-05-15T00:52:09.028Z,13
2023-05-15T00:53:07.222Z,13
2023-05-15T00:54:41.401Z,13
2023-05-15T00:55:56.624Z,13
2023-05-15T00:56:54.818Z,12.9
2023-05-15T00:58:11.011Z,12.9
2023-05-15T00:59:45.000Z,12.9
2023-05-15T01:01:01.000Z,12.9
2023-05-15T01:02:17.000Z,12.9
2023-05-15T01:03:33.776Z,12.9
2023-05-15T01:04:31.977Z,12.9
2023-05-15T01:05:48.170Z,12.9
2023-05-15T01:07:22.000Z,12.9
2023-05-15T01:08:20.556Z,12.8
2023-05-15T01:09:54.000Z,12.8
2023-05-15T01:10:52.941Z,12.7
2023-05-15T01:12:08.151Z,12.7
2023-05-15T01:13:42.000Z,12.6
2023-05-15T01:14:58.000Z,12.6
2023-05-15T01:16:14.729Z,12.6
2023-05-15T01:17:30.922Z,12.5
2023-05-15T01:19:13.000Z,12.6
2023-05-15T01:20:03.000Z,12.6
2023-05-15T01:21:19.502Z,12.6
2023-05-15T01:22:35.000Z,12.6
2023-05-15T01:23:51.875Z,12.6
2023-05-15T01:25:08.080Z,12.6
2023-05-15T01:26:24.000Z,12.6
2023-05-15T01:27:40.000Z,12.6
2023-05-15T01:28:55.671Z,12.6
2023-05-15T01:30:11.864Z,12.6
2023-05-15T01:31:10.059Z,12.5
2023-05-15T01:32:44.237Z,12.5
2023-05-15T01:34:00.448Z,12.4
2023-05-15T01:35:16.000Z,12.4
2023-05-15T01:36:32.822Z,12.3
2023-05-15T01:37:49.025Z,12.3
2023-05-15T01:39:05.000Z,12.3
2023-05-15T01:40:03.410Z,12.3
2023-05-15T01:41:37.603Z,12.3
2023-05-15T01:42:53.000Z,12.3
2023-05-15T01:44:09.000Z,12.3
2023-05-15T01:45:25.000Z,12.3
2023-05-15T01:46:23.391Z,12.2
2023-05-15T01:47:57.570Z,12.3
2023-05-15T01:48:55.777Z,12.3
2023-05-15T01:50:11.969Z,12.3
2023-05-15T01:51:46.000Z,12.3
2023-05-15T01:53:02.000Z,12.3
2023-05-15T01:54:18.000Z,12.3
2023-05-15T01:55:34.744Z,12.3
2023-05-15T01:56:50.919Z,12.3
2023-05-15T01:58:07.000Z,12.2
2023-05-15T01:59:23.306Z,12.2
2023-05-15T02:00:39.000Z,12.2
2023-05-15T02:01:37.706Z,12.2
2023-05-15T02:03:10.903Z,12.1
2023-05-15T02:04:27.000Z,12.1
2023-05-15T02:05:43.000Z,12.1
2023-05-15T02:06:59.000Z,12.1
2023-05-15T02:08:15.000Z,12
2023-05-15T02:09:13.879Z,12
2023-05-15T02:10:48.061Z,12
2023-05-15T02:11:46.266Z,12
2023-05-15T02:13:02.459Z,12
2023-05-15T02:14:36.651Z,12
2023-05-15T02:15:52.000Z,11.9
2023-05-15T02:17:09.000Z,11.9
2023-05-15T02:18:25.230Z,11.9
2023-05-15T02:19:41.415Z,11.9
2023-05-15T02:20:56.000Z,11.9
2023-05-15T02:22:12.816Z,11.9
2023-05-15T02:23:29.000Z,11.9
2023-05-15T02:24:27.212Z,11.9
2023-05-15T02:26:01.000Z,11.9
2023-05-15T02:26:59.598Z,11.9
2023-05-15T02:28:33.000Z,11.9
2023-05-15T02:29:49.984Z,11.8
2023-05-15T02:31:06.000Z,11.8
2023-05-15T02:32:22.364Z,11.8
2023-05-15T02:33:38.550Z,11.8
2023-05-15T02:34:54.756Z,11.8
2023-05-15T02:36:10.000Z,11.8
2023-05-15T02:37:09.141Z,11.8
2023-05-15T02:38:43.000Z,11.8
2023-05-15T02:39:41.649Z,11.8
2023-05-15T02:41:15.828Z,11.8
2023-05-15T02:42:32.000Z,11.9
2023-05-15T02:43:48.000Z,11.9
2023-05-15T02:45:04.420Z,11.9
2023-05-15T02:46:20.000Z,11.9
2023-05-15T02:47:18.808Z,12
2023-05-15T02:48:52.991Z,12
2023-05-15T02:50:09.195Z,12
2023-05-15T02:51:51.000Z,12
2023-05-15T02:52:41.580Z,12.1
2023-05-15T02:53:57.000Z,12.1
2023-05-15T02:55:13.967Z,12.1
2023-05-15T02:56:30.163Z,12.1
2023-05-15T02:57:46.000Z,12
2023-05-15T02:59:02.000Z,12
2023-05-15T03:00:18.723Z,12
2023-05-15T03:01:33.000Z,12
2023-05-15T03:02:32.147Z,12
2023-05-15T03:04:06.329Z,12
2023-05-15T03:05:04.533Z,12
2023-05-15T03:06:38.000Z,12
2023-05-15T03:07:54.000Z,12
2023-05-15T03:09:11.000Z,12
2023-05-15T03:10:27.297Z,12
2023-05-15T03:11:43.000Z,12
2023-05-15T03:12:41.690Z,12
2023-05-15T03:14:15.883Z,12
2023-05-15T03:15:32.064Z,12
2023-05-15T03:16:48.000Z,12.1
2023-05-15T03:18:04.452Z,12.1
2023-05-15T03:19:19.660Z,12.1
2023-05-15T03:20:35.000Z,12.1
2023-05-15T03:21:52.000Z,12.1
2023-05-15T03:23:08.000Z,12.2
2023-05-15T03:24:24.000Z,12.2
2023-05-15T03:25:22.636Z,12.2
2023-05-15T03:26:56.818Z,12.2
2023-05-15T03:28:13.017Z,12.3
2023-05-15T03:29:55.000Z,12.3
2023-05-15T03:30:27.408Z,12.3
2023-05-15T03:32:01.000Z,12.2
2023-05-15T03:33:17.000Z,12.2
2023-05-15T03:34:33.974Z,12.2
2023-05-15T03:35:50.181Z,12.1
2023-05-15T03:37:05.381Z,12.1
2023-05-15T03:38:03.583Z,12.1
2023-05-15T03:39:37.000Z,12.1
2023-05-15T03:40:35.969Z,12.1
2023-05-15T03:42:10.154Z,12
2023-05-15T03:43:08.355Z,12
2023-05-15T03:44:42.000Z,12
2023-05-15T03:45:58.000Z,12
2023-05-15T03:47:14.933Z,12
2023-05-15T03:48:31.110Z,12
2023-05-15T03:49:47.316Z,12.1
2023-05-15T03:50:45.512Z,12.1
2023-05-15T03:52:45.000Z,12.1
2023-05-15T03:53:16.911Z,12.1
2023-05-15T03:54:51.000Z,12.2
2023-05-15T03:55:49.298Z,12.2
2023-05-15T03:57:23.486Z,12.3
2023-05-15T03:58:39.683Z,12.3
2023-05-15T04:00:22.000Z,12.4
2023-05-15T04:01:12.000Z,12.4
2023-05-15T04:02:28.000Z,12.5
2023-05-15T04:03:26.456Z,12.5
2023-05-15T04:05:00.633Z,12.5
2023-05-15T04:06:16.000Z,12.6
2023-05-15T04:07:33.034Z,12.6
2023-05-15T04:08:31.228Z,12.6
2023-05-15T04:10:05.000Z,12.6
2023-05-15T04:11:21.000Z,12.6
2023-05-15T04:12:37.795Z,12.6
2023-05-15T04:13:53.990Z,12.7
2023-05-15T04:15:09.000Z,12.7
2023-05-15T04:16:25.386Z,12.7
2023-05-15T04:17:41.595Z,12.7
2023-05-15T04:18:57.779Z,12.8
2023-05-15T04:20:13.000Z,12.8
2023-05-15T04:21:12.174Z,12.8
2023-05-15T04:22:46.366Z,12.9
2023-05-15T04:24:02.559Z,12.9
2023-05-15T04:25:18.752Z,12.8
2023-05-15T04:26:34.942Z,12.9
2023-05-15T04:27:51.140Z,12.9
2023-05-15T04:28:49.331Z,13
2023-05-15T04:30:23.000Z,13
2023-05-15T04:31:21.717Z,13.1
2023-05-15T04:32:55.909Z,13.1
2023-05-15T04:33:54.103Z,13.2
2023-05-15T04:35:28.415Z,13.2
2023-05-15T04:36:44.609Z,13.2
2023-05-15T04:38:00.000Z,13.2
2023-05-15T04:39:17.000Z,13.3
2023-05-15T04:40:33.187Z,13.3
2023-05-15T04:41:49.374Z,13.4
2023-05-15T04:43:05.559Z,13.4
2023-05-15T04:44:03.767Z,13.3
2023-05-15T04:45:37.000Z,13.3
2023-05-15T04:46:54.000Z,13.3
2023-05-15T04:48:10.000Z,13.3
2023-05-15T04:49:26.000Z,13.3
2023-05-15T04:50:42.000Z,13.2
2023-05-15T04:51:58.924Z,13.3
2023-05-15T04:53:15.118Z,13.3
2023-05-15T04:54:13.311Z,13.3
2023-05-15T04:55:47.000Z,13.3
2023-05-15T04:57:03.000Z,13.3
2023-05-15T04:58:18.000Z,13.4
2023-05-15T04:59:17.098Z,13.4
2023-05-15T05:00:51.291Z,13.4
2023-05-15T05:02:07.000Z,13.4
2023-05-15T05:03:23.000Z,13.5
2023-05-15T05:04:39.858Z,13.4
2023-05-15T05:06:22.000Z,13.5
2023-05-15T05:06:54.256Z,13.5
2023-05-15T05:08:28.000Z,13.5
2023-05-15T05:09:44.641Z,13.5
2023-05-15T05:11:00.000Z,13.5
2023-05-15T05:11:59.027Z,13.6
2023-05-15T05:13:33.213Z,13.6
2023-05-15T05:14:48.000Z,13.7
2023-05-15T05:16:04.000Z,13.7
2023-05-15T05:17:20.815Z,13.8
2023-05-15T05:18:37.000Z,13.9
2023-05-15T05:19:53.200Z,13.9
2023-05-15T05:21:09.000Z,13.9
2023-05-15T05:22:07.587Z,13.9
2023-05-15T05:23:41.000Z,13.9
2023-05-15T05:24:57.000Z,13.9
2023-05-15T05:26:14.000Z,13.9
2023-05-15T05:27:30.000Z,14
2023-05-15T05:28:46.000Z,14
2023-05-15T05:30:02.000Z,14
2023-05-15T05:31:18.000Z,14.1
2023-05-15T05:32:17.132Z,14.2
2023-05-15T05:33:51.000Z,14.2
2023-05-15T05:34:49.518Z,14.3
2023-05-15T05:36:23.698Z,14.4
2023-05-15T05:37:20.921Z,14.4
2023-05-15T05:39:21.000Z,14.5
2023-05-15T05:40:11.000Z,14.6
2023-05-15T05:41:27.000Z,14.6
2023-05-15T05:42:43.698Z,14.7
2023-05-15T05:43:59.000Z,14.7
2023-05-15T05:44:58.082Z,14.8
2023-05-15T05:46:58.000Z,14.8
2023-05-15T05:47:48.457Z,14.9
2023-05-15T05:49:04.661Z,14.9
2023-05-15T05:50:20.853Z,14.9
2023-05-15T05:51:37.041Z,15
2023-05-15T05:52:53.000Z,15
2023-05-15T05:54:35.000Z,15.1
2023-05-15T05:55:25.629Z,15.1
2023-05-15T05:56:41.000Z,15.1
2023-05-15T05:57:40.014Z,15.2
2023-05-15T05:59:14.207Z,15.2
2023-05-15T06:00:11.417Z,15.2
2023-05-15T06:01:45.000Z,15.2
2023-05-15T06:02:43.804Z,15.3
2023-05-15T06:04:18.000Z,15.3
2023-05-15T06:05:34.000Z,15.3
2023-05-15T06:06:32.383Z,15.4
2023-05-15T06:08:06.575Z,15.4
2023-05-15T06:09:22.771Z,15.4
2023-05-15T06:10:38.968Z,15.4
2023-05-15T06:11:55.000Z,15.5
2023-05-15T06:12:53.351Z,15.5
2023-05-15T06:14:27.540Z,15.5
2023-05-15T06:15:25.738Z,15.5
2023-05-15T06:16:59.000Z,15.5
2023-05-15T06:18:16.000Z,15.5
2023-05-15T06:19:32.000Z,15.6
2023-05-15T06:20:48.498Z,15.6
2023-05-15T06:22:04.000Z,15.7
2023-05-15T06:23:02.899Z,15.7
2023-05-15T06:25:03.000Z,15.7
2023-05-15T06:25:53.280Z,15.7
2023-05-15T06:27:09.000Z,15.7
2023-05-15T06:28:25.785Z,15.8
2023-05-15T06:29:41.990Z,15.8
2023-05-15T06:30:58.180Z,15.8
2023-05-15T06:32:14.000Z,15.9
2023-05-15T06:33:30.560Z,15.9
2023-05-15T06:34:46.000Z,15.9
2023-05-15T06:36:02.953Z,16
2023-05-15T06:37:19.000Z,16
2023-05-15T06:38:17.340Z,16.1
2023-05-15T06:39:51.534Z,16.1
2023-05-15T06:40:49.726Z,16.1
2023-05-15T06:42:23.000Z,16.2
2023-05-15T06:43:40.113Z,16.2
2023-05-15T06:44:56.303Z,16.3
2023-05-15T06:46:11.000Z,16.3
2023-05-15T06:47:27.000Z,16.3
2023-05-15T06:48:43.000Z,16.4
2023-05-15T06:50:00.000Z,16.4
2023-05-15T06:51:16.273Z,16.4
2023-05-15T06:52:32.467Z,16.4
2023-05-15T06:53:30.675Z,16.5
2023-05-15T06:55:04.000Z,16.5
2023-05-15T06:56:21.000Z,16.5
2023-05-15T06:57:37.000Z,16.5
2023-05-15T06:58:53.441Z,16.5
2023-05-15T07:00:09.631Z,16.6
2023-05-15T07:01:25.823Z,16.6
2023-05-15T07:02:42.000Z,16.5
2023-05-15T07:03:40.219Z,16.6
2023-05-15T07:05:14.000Z,16.6
2023-05-15T07:06:12.604Z,16.7
2023-05-15T07:07:46.000Z,16.7
2023-05-15T07:09:02.000Z,16.8
2023-05-15T07:10:19.000Z,16.9
2023-05-15T07:11:35.366Z,16.9
2023-05-15T07:12:51.000Z,17
2023-05-15T07:13:49.762Z,17.1
2023-05-15T07:15:23.942Z,17.2
2023-05-15T07:16:22.147Z,17.2
2023-05-15T07:17:56.000Z,17.3
2023-05-15T07:18:54.533Z,17.3
2023-05-15T07:20:27.000Z,17.3
2023-05-15T07:21:43.000Z,17.4
2023-05-15T07:23:00.000Z,17.4
2023-05-15T07:24:16.326Z,17.5
2023-05-15T07:25:32.000Z,17.6
2023-05-15T07:26:48.000Z,17.7
2023-05-15T07:28:04.000Z,17.7
2023-05-15T07:29:03.096Z,17.8
2023-05-15T07:30:37.293Z,17.9
2023-05-15T07:31:35.481Z,17.9
2023-05-15T07:33:09.000Z,18
2023-05-15T07:34:25.000Z,18
2023-05-15T07:35:42.000Z,18.1
2023-05-15T07:36:40.252Z,18.1
2023-05-15T07:38:14.000Z,18.2
2023-05-15T07:39:30.632Z,18.3
2023-05-15T07:40:46.816Z,18.3
2023-05-15T07:42:03.000Z,18.4
2023-05-15T07:43:19.216Z,18.5
2023-05-15T07:44:35.000Z,18.5
2023-05-15T07:45:51.588Z,18.5
2023-05-15T07:47:07.000Z,18.5
2023-05-15T07:48:50.000Z,18.5
2023-05-15T07:49:40.178Z,18.5
2023-05-15T07:50:56.000Z,18.5
2023-05-15T07:51:54.624Z,18.6
2023-05-15T07:53:28.819Z,18.6
2023-05-15T07:55:11.000Z,18.6
2023-05-15T07:56:01.000Z,18.7
2023-05-15T07:57:17.395Z,18.7
2023-05-15T07:58:33.000Z,18.7
2023-05-15T07:59:49.000Z,18.7
2023-05-15T08:01:05.000Z,18.7
2023-05-15T08:02:22.167Z,18.6
2023-05-15T08:03:38.356Z,18.5
2023-05-15T08:04:36.553Z,18.5
2023-05-15T08:06:10.000Z,18.4
2023-05-15T08:07:26.990Z,18.4
2023-05-15T08:08:43.000Z,18.4
2023-05-15T08:09:59.533Z,18.4
2023-05-15T08:11:15.000Z,18.5
2023-05-15T08:12:31.000Z,18.6
2023-05-15T08:13:48.000Z,18.7
2023-05-15T08:15:04.000Z,18.6
2023-05-15T08:16:20.000Z,18.6
2023-05-15T08:17:18.692Z,18.6
2023-05-15T08:18:52.000Z,18.7
2023-05-15T08:20:09.000Z,18.8
2023-05-15T08:21:07.271Z,18.8
2023-05-15T08:22:41.000Z,18.8
2023-05-15T08:23:57.000Z,18.7
2023-05-15T08:25:13.850Z,18.7
2023-05-15T08:26:30.000Z,18.7
2023-05-15T08:27:46.000Z,18.8
2023-05-15T08:29:02.000Z,18.8
2023-05-15T08:30:00.624Z,18.9
2023-05-15T08:31:34.000Z,18.8
2023-05-15T08:32:33.010Z,18.8
2023-05-15T08:34:07.000Z,18.8
2023-05-15T08:35:05.396Z,18.8
2023-05-15T08:36:39.000Z,18.8
2023-05-15T08:37:55.000Z,18.8
2023-05-15T08:39:11.000Z,18.7
2023-05-15T08:40:28.000Z,18.7
2023-05-15T08:41:44.469Z,18.7
2023-05-15T08:42:59.743Z,18.7
2023-05-15T08:44:14.000Z,18.7
2023-05-15T08:45:13.149Z,18.7
2023-05-15T08:46:47.000Z,18.6
2023-05-15T08:48:03.534Z,18.6
2023-05-15T08:49:19.726Z,18.5
2023-05-15T08:50:35.000Z,18.6
2023-05-15T08:52:18.000Z,18.6
2023-05-15T08:53:08.300Z,18.6
2023-05-15T08:54:24.000Z,18.6
2023-05-15T08:55:40.689Z,18.6
2023-05-15T08:56:56.879Z,18.6
2023-05-15T08:57:55.080Z,18.5
2023-05-15T08:59:29.261Z,18.6
2023-05-15T09:00:27.467Z,18.6
2023-05-15T09:02:01.000Z,18.5
2023-05-15T09:03:17.000Z,18.6
2023-05-15T09:04:34.000Z,18.6
2023-05-15T09:05:50.239Z,18.7
2023-05-15T09:07:06.431Z,18.7
2023-05-15T09:08:22.000Z,18.7
2023-05-15T09:09:38.000Z,18.7
2023-05-15T09:10:55.000Z,18.8
2023-05-15T09:12:11.193Z,18.8
2023-05-15T09:13:26.414Z,18.8
2023-05-15T09:14:41.000Z,18.7
2023-05-15T09:15:57.827Z,18.8
2023-05-15T09:17:14.000Z,18.9
2023-05-15T09:18:30.000Z,19
2023-05-15T09:19:46.000Z,19
2023-05-15T09:21:02.000Z,19
2023-05-15T09:22:18.000Z,18.9
2023-05-15T09:23:34.971Z,18.9
2023-05-15T09:24:51.000Z,18.9
2023-05-15T09:26:07.000Z,18.9
2023-05-15T09:27:23.558Z,18.9
2023-05-15T09:28:39.760Z,18.9
2023-05-15T09:29:55.000Z,19
2023-05-15T09:31:11.151Z,19
2023-05-15T09:32:27.000Z,19.1
2023-05-15T09:33:43.546Z,19.1
2023-05-15T09:34:59.735Z,19.1
2023-05-15T09:36:15.933Z,19.1
2023-05-15T09:37:32.000Z,19.1
2023-05-15T09:38:48.320Z,19.2
2023-05-15T09:40:04.000Z,19.3
2023-05-15T09:41:20.855Z,19.2
2023-05-15T09:42:37.000Z,19.2
2023-05-15T09:43:53.226Z,19.2
2023-05-15T09:45:09.000Z,19.2
2023-05-15T09:46:07.631Z,19.2
2023-05-15T09:47:41.824Z,19.2
2023-05-15T09:48:40.017Z,19.2
2023-05-15T09:50:14.000Z,19.1
2023-05-15T09:51:12.404Z,19.2
2023-05-15T09:52:46.000Z,19.3
2023-05-15T09:54:02.791Z,19.4
2023-05-15T09:55:18.000Z,19.4
2023-05-15T09:56:35.165Z,19.4
2023-05-15T09:57:51.000Z,19.5
2023-05-15T09:58:49.566Z,19.6
2023-05-15T10:00:23.000Z,19.6
2023-05-15T10:01:39.945Z,19.7
2023-05-15T10:02:56.000Z,19.7
2023-05-15T10:04:12.325Z,19.8
2023-05-15T10:05:27.560Z,19.7
2023-05-15T10:06:42.000Z,19.7
2023-05-15T10:08:25.000Z,19.7
2023-05-15T10:09:15.000Z,19.7
2023-05-15T10:10:31.000Z,19.7
2023-05-15T10:11:47.000Z,19.8
2023-05-15T10:13:03.724Z,19.8
2023-05-15T10:14:01.932Z,19.9
2023-05-15T10:15:36.000Z,19.8
2023-05-15T10:16:34.318Z,19.7
2023-05-15T10:18:08.000Z,19.7
2023-05-15T10:19:24.000Z,19.5
2023-05-15T10:20:40.000Z,19.5
2023-05-15T10:21:57.094Z,19.5
2023-05-15T10:23:13.288Z,19.4
2023-05-15T10:24:11.481Z,19.4
2023-05-15T10:25:45.000Z,19.4
2023-05-15T10:27:01.000Z,19.3
2023-05-15T10:28:18.000Z,19.3
2023-05-15T10:29:34.368Z,19.4
2023-05-15T10:30:50.000Z,19.4
2023-05-15T10:32:06.000Z,19.4
2023-05-15T10:33:23.000Z,19.4
2023-05-15T10:34:39.000Z,19.5
2023-05-15T10:35:55.505Z,19.3
2023-05-15T10:37:11.686Z,19.1
2023-05-15T10:38:28.000Z,19.2
2023-05-15T10:39:44.211Z,19.2
2023-05-15T10:41:00.000Z,19.2
2023-05-15T10:42:16.604Z,19.2
2023-05-15T10:43:32.789Z,19.2
2023-05-15T10:44:49.000Z,19.3
2023-05-15T10:46:05.189Z,19.3
2023-05-15T10:47:21.374Z,19.3
2023-05-15T10:48:37.000Z,19.3
2023-05-15T10:49:35.775Z,19.2
2023-05-15T10:51:09.958Z,19.2
2023-05-15T10:52:26.162Z,19.2
2023-05-15T10:53:42.362Z,19.3
2023-05-15T10:54:57.000Z,19.2
2023-05-15T10:56:12.000Z,19.1
2023-05-15T10:57:28.986Z,19
2023-05-15T10:58:45.000Z,18.9
2023-05-15T11:00:01.377Z,18.8
2023-05-15T11:01:17.000Z,18.7
2023-05-15T11:02:15.768Z,18.7
2023-05-15T11:03:49.000Z,18.7
2023-05-15T11:05:06.000Z,18.7
2023-05-15T11:06:22.343Z,18.7
2023-05-15T11:07:37.548Z,18.8
2023-05-15T11:08:53.760Z,18.8
2023-05-15T11:10:09.955Z,18.9
2023-05-15T11:11:26.150Z,19
2023-05-15T11:13:08.000Z,19.2
2023-05-15T11:13:58.537Z,19.3
2023-05-15T11:14:56.736Z,19.4
2023-05-15T11:16:30.932Z,19.5
2023-05-15T11:17:47.121Z,19.6
2023-05-15T11:19:03.322Z,19.7
2023-05-15T11:20:19.504Z,19.6
2023-05-15T11:21:35.000Z,19.7
2023-05-15T11:22:51.000Z,19.7
2023-05-15T11:25:24.300Z,19.7
2023-05-15T11:26:40.000Z,19.8
2023-05-15T11:27:38.691Z,19.8
2023-05-15T11:29:12.880Z,19.8
2023-05-15T11:30:10.097Z,19.9
2023-05-15T11:31:44.000Z,20
2023-05-15T11:33:00.473Z,19.9
2023-05-15T11:34:16.000Z,19.9
2023-05-15T11:35:32.000Z,19.9
2023-05-15T11:36:49.062Z,19.7
2023-05-15T11:38:04.000Z,19.8
2023-05-15T11:39:20.000Z,19.9
2023-05-15T11:40:36.000Z,20
2023-05-15T11:41:52.000Z,20.1
2023-05-15T11:42:51.073Z,20.2
2023-05-15T11:44:25.252Z,20.2
2023-05-15T11:45:23.463Z,20.3
2023-05-15T11:46:57.000Z,20.2
2023-05-15T11:48:13.854Z,20.2
2023-05-15T11:49:30.000Z,20.2
2023-05-15T11:50:46.000Z,20.4
2023-05-15T11:52:02.437Z,20.5
2023-05-15T11:53:00.633Z,20.5
2023-05-15T11:54:34.000Z,20.7
2023-05-15T11:55:50.031Z,20.7
2023-05-15T11:57:06.000Z,20.6
2023-05-15T11:58:22.416Z,20.6
2023-05-15T11:59:38.622Z,20.7
2023-05-15T12:00:54.000Z,21
2023-05-15T12:02:11.000Z,20.8
2023-05-15T12:03:27.000Z,20.7
2023-05-15T12:04:43.000Z,20.9
2023-05-15T12:05:41.593Z,21.1
2023-05-15T12:07:15.772Z,21.4
2023-05-15T12:08:13.983Z,21.7
2023-05-15T12:09:48.000Z,21.5
2023-05-15T12:11:04.360Z,21.4
2023-05-15T12:12:19.000Z,21.5
2023-05-15T12:13:35.777Z,21.6
2023-05-15T12:14:51.971Z,21.7
2023-05-15T12:16:08.172Z,21.8
2023-05-15T12:17:24.000Z,21.7
2023-05-15T12:18:22.555Z,21.7
2023-05-15T12:19:56.000Z,21.6
2023-05-15T12:21:12.942Z,21.8
2023-05-15T12:22:29.140Z,21.8
2023-05-15T12:23:45.322Z,22
2023-05-15T12:25:01.000Z,21.6
2023-05-15T12:26:17.000Z,21.4
2023-05-15T12:27:33.000Z,21.5
2023-05-15T12:28:50.114Z,21.7
2023-05-15T12:30:06.309Z,21.9
2023-05-15T12:31:22.488Z,22.1
2023-05-15T12:32:38.000Z,22.3
2023-05-15T12:33:36.894Z,22.6
2023-05-15T12:35:11.000Z,22.7
2023-05-15T12:36:27.281Z,22.9
2023-05-15T12:37:43.598Z,23
2023-05-15T12:38:59.794Z,22.9
2023-05-15T12:40:15.000Z,22.5
2023-05-15T12:41:32.179Z,22.3
2023-05-15T12:42:48.000Z,22.3
2023-05-15T12:44:04.000Z,22
2023-05-15T12:45:20.754Z,21.8
2023-05-15T12:46:36.953Z,21.8
2023-05-15T12:47:53.000Z,21.8
2023-05-15T12:49:09.351Z,22
2023-05-15T12:50:25.549Z,22.2
2023-05-15T12:51:41.000Z,22.4
2023-05-15T12:52:57.930Z,22.5
2023-05-15T12:54:14.122Z,22.4
2023-05-15T12:55:30.000Z,22.3
2023-05-15T12:56:28.523Z,22.1
2023-05-15T12:58:02.718Z,22.3
2023-05-15T12:59:18.901Z,22.4
2023-05-15T13:00:34.000Z,22.4
2023-05-15T13:01:32.319Z,22.4
2023-05-15T13:03:06.514Z,22.4
2023-05-15T13:04:22.000Z,22.4
2023-05-15T13:05:38.000Z,22.3
2023-05-15T13:06:55.086Z,22.4
2023-05-15T13:08:11.280Z,22.6
2023-05-15T13:09:27.486Z,22.7
2023-05-15T13:10:43.000Z,22.8
2023-05-15T13:11:59.867Z,22.8
2023-05-15T13:13:16.000Z,22.7
2023-05-15T13:14:14.267Z,22.7
2023-05-15T13:15:48.459Z,22.7
2023-05-15T13:17:03.000Z,22.8
2023-05-15T13:18:46.000Z,23.1
2023-05-15T13:19:36.000Z,23.3
2023-05-15T13:21:18.000Z,23.6
2023-05-15T13:21:50.453Z,23.8
2023-05-15T13:23:24.636Z,24.2
2023-05-15T13:24:40.000Z,24.3
2023-05-15T13:25:57.000Z,24.4
2023-05-15T13:26:55.234Z,24.2
2023-05-15T13:28:29.000Z,24.5
2023-05-15T13:29:45.000Z,25.2
2023-05-15T13:31:01.810Z,24.5
2023-05-15T13:32:18.000Z,23.6
2023-05-15T13:33:34.209Z,23.4
2023-05-15T13:34:50.387Z,23.2
2023-05-15T13:36:06.000Z,23.1
2023-05-15T13:37:22.794Z,22.6
2023-05-15T13:38:20.005Z,21.4
2023-05-15T13:39:36.200Z,20.7
2023-05-15T13:41:10.000Z,20.1
2023-05-15T13:42:26.000Z,19.7
2023-05-15T13:43:42.785Z,19.5
2023-05-15T13:44:58.000Z,19.3
2023-05-15T13:46:15.174Z,19.2
2023-05-15T13:47:13.370Z,19
2023-05-15T13:48:47.564Z,18.8
2023-05-15T13:49:45.759Z,18.7
2023-05-15T13:51:19.954Z,18.7
2023-05-15T13:52:18.148Z,18.5
2023-05-15T13:53:52.325Z,18.2
2023-05-15T13:55:07.000Z,18.1
2023-05-15T13:56:23.000Z,18
2023-05-15T13:57:39.944Z,17.8
2023-05-15T13:58:56.000Z,17.6
2023-05-15T13:59:54.335Z,17.5
2023-05-15T14:01:10.531Z,17.4
2023-05-15T14:02:44.726Z,17.3
2023-05-15T14:04:00.922Z,17.3
2023-05-15T14:04:59.117Z,17.1
2023-05-15T14:06:33.000Z,16.9
2023-05-15T14:07:49.000Z,17
2023-05-15T14:09:05.000Z,16.9
2023-05-15T14:10:21.000Z,16.8
2023-05-15T14:11:38.092Z,16.8
2023-05-15T14:12:36.287Z,16.7
2023-05-15T14:14:10.000Z,16.6
2023-05-15T14:15:26.659Z,16.7
2023-05-15T14:16:41.000Z,16.8
2023-05-15T14:17:40.081Z,16.8
2023-05-15T14:19:14.000Z,16.9
2023-05-15T14:20:30.471Z,16.9
2023-05-15T14:21:46.000Z,16.9
2023-05-15T14:23:02.850Z,16.9
2023-05-15T14:24:01.055Z,16.9
2023-05-15T14:25:17.250Z,16.9
2023-05-15T14:27:17.000Z,17
2023-05-15T14:28:07.000Z,17
2023-05-15T14:29:23.000Z,17
2023-05-15T14:30:40.028Z,17
2023-05-15T14:31:56.222Z,17
2023-05-15T14:33:11.434Z,16.9
2023-05-15T14:34:27.000Z,17
2023-05-15T14:35:43.000Z,17.1
2023-05-15T14:37:00.000Z,17.2
2023-05-15T14:37:58.213Z,17.3
2023-05-15T14:39:32.397Z,17.3
2023-05-15T14:40:48.602Z,17.4
2023-05-15T14:42:04.797Z,17.5
2023-05-15T14:43:20.987Z,17.7
2023-05-15T14:44:37.000Z,17.7
2023-05-15T14:45:53.000Z,17.8
2023-05-15T14:47:09.000Z,17.9
2023-05-15T14:48:07.771Z,17.9
2023-05-15T14:49:23.966Z,17.9
2023-05-15T14:50:40.161Z,17.9
2023-05-15T14:52:14.356Z,18
2023-05-15T14:53:30.551Z,18
2023-05-15T14:54:28.746Z,18
2023-05-15T14:56:01.951Z,18.1
2023-05-15T14:57:18.152Z,18.1
2023-05-15T14:58:34.346Z,18.3
2023-05-15T14:59:50.000Z,18.4
2023-05-15T15:00:48.736Z,18.5
2023-05-15T15:02:22.918Z,18.5
2023-05-15T15:03:39.110Z,18.8
2023-05-15T15:04:55.000Z,19
2023-05-15T15:05:53.519Z,19.5
2023-05-15T15:07:27.000Z,19.9
2023-05-15T15:08:25.910Z,20.1
2023-05-15T15:10:00.106Z,20
2023-05-15T15:11:16.301Z,20
2023-05-15T15:12:32.497Z,19.8
2023-05-15T15:13:30.692Z,19.6
2023-05-15T15:15:04.000Z,19.9
2023-05-15T15:16:03.083Z,20
2023-05-15T15:17:37.270Z,20.3
2023-05-15T15:18:34.490Z,20.5
2023-05-15T15:20:34.000Z,20.6
2023-05-15T15:21:06.880Z,20.4
2023-05-15T15:22:41.057Z,20.5
2023-05-15T15:23:57.000Z,20.4
2023-05-15T15:24:55.464Z,20.2
2023-05-15T15:26:11.658Z,19.9
2023-05-15T15:27:45.000Z,19.4
2023-05-15T15:28:44.048Z,19.1
2023-05-15T15:30:18.244Z,19.2
2023-05-15T15:31:16.438Z,19.1
2023-05-15T15:32:50.631Z,19.4
2023-05-15T15:33:48.829Z,19.4
2023-05-15T15:35:22.000Z,19.2
2023-05-15T15:36:38.235Z,19.1
2023-05-15T15:37:54.430Z,19.2
2023-05-15T15:39:10.000Z,19.1
2023-05-15T15:40:26.820Z,19
2023-05-15T15:41:25.015Z,19
2023-05-15T15:43:25.000Z,19.2
2023-05-15T15:44:15.388Z,19
2023-05-15T15:45:31.000Z,18.9
2023-05-15T15:46:29.797Z,18.9
2023-05-15T15:48:03.000Z,18.9
2023-05-15T15:49:20.000Z,19
2023-05-15T15:50:36.000Z,19.1
2023-05-15T15:51:34.580Z,19.5
2023-05-15T15:53:08.000Z,19.9
2023-05-15T15:54:24.000Z,20.3
2023-05-15T15:55:41.152Z,20.4
2023-05-15T15:56:38.384Z,20.4
2023-05-15T15:58:38.000Z,20.2
2023-05-15T15:59:10.775Z,20.1
2023-05-15T16:00:44.000Z,19.9
2023-05-15T16:02:01.166Z,19.7
2023-05-15T16:02:59.361Z,19.6
2023-05-15T16:04:15.556Z,19.6
2023-05-15T16:05:31.752Z,19.4
2023-05-15T16:06:47.947Z,19.4
2023-05-15T16:08:22.000Z,19.3
2023-05-15T16:09:38.000Z,19.2
2023-05-15T16:10:54.517Z,19.2
2023-05-15T16:11:52.729Z,19.1
2023-05-15T16:13:26.000Z,19
2023-05-15T16:14:43.121Z,18.9
2023-05-15T16:15:59.000Z,18.8
2023-05-15T16:16:57.511Z,18.8
2023-05-15T16:18:31.000Z,18.7
2023-05-15T16:19:46.000Z,18.6
2023-05-15T16:21:03.000Z,18.4
2023-05-15T16:22:01.309Z,18.3
2023-05-15T16:23:35.000Z,18.3
2023-05-15T16:24:33.699Z,18.3
2023-05-15T16:26:07.883Z,18.2
2023-05-15T16:27:24.089Z,18.2
2023-05-15T16:28:40.000Z,18.2
2023-05-15T16:29:56.000Z,18.1
2023-05-15T16:31:12.000Z,18.1
2023-05-15T16:32:10.868Z,18.1
2023-05-15T16:33:45.052Z,18.1
2023-05-15T16:35:01.258Z,18.1
2023-05-15T16:35:58.470Z,18.1
2023-05-15T16:37:32.665Z,18.1
2023-05-15T16:38:48.000Z,18.1
2023-05-15T16:40:05.055Z,18.1
2023-05-15T16:41:21.239Z,18.1
2023-05-15T16:42:37.000Z,18.2
2023-05-15T16:43:53.000Z,18.2
2023-05-15T16:44:51.836Z,18.2
2023-05-15T16:46:26.000Z,18.2
2023-05-15T16:48:08.000Z,18.2
2023-05-15T16:48:58.417Z,18.2
2023-05-15T16:49:56.618Z,18.2
2023-05-15T16:51:30.810Z,18.1
2023-05-15T16:52:47.008Z,18.1
2023-05-15T16:54:03.000Z,18.1
2023-05-15T16:55:19.388Z,18.2
2023-05-15T16:56:35.586Z,18.2
2023-05-15T16:57:50.806Z,18.2
2023-05-15T16:59:07.000Z,18.2
2023-05-15T17:00:23.194Z,18.1
2023-05-15T17:01:39.000Z,18.1